This is the latest recevied weather packets stored in our database for station/object N4QD-13. If no packets are shown the sender has not sent any weather packets the latest 1 day(s).
| Time | Temp. | Humidity | Pressure | Rain* | Wind** | Luminosity | Snow |
|---|---|---|---|---|---|---|---|
| 1778022029 | 24.44° C | 37% | 1011.4 hPa | 0 mm | 1.34 m/s, 27° | 77 W/m² | - |
| 1778021726 | 25° C | 36% | 1011.3 hPa | 0 mm | 2.68 m/s, 312° | 91 W/m² | - |
| 1778021422 | 25° C | 36% | 1011.4 hPa | 0 mm | 1.34 m/s, 311° | 108 W/m² | - |
| 1778021120 | 25° C | 36% | 1011.4 hPa | 0 mm | 1.79 m/s, 338° | 98 W/m² | - |
| 1778020817 | 25° C | 36% | 1011.5 hPa | 0 mm | 1.34 m/s, 347° | 91 W/m² | - |
| 1778020514 | 25° C | 36% | 1011.4 hPa | 0 mm | 0.89 m/s, 26° | 78 W/m² | - |
| 1778020216 | 25° C | 36% | 1011.4 hPa | 0 mm | 1.79 m/s, 326° | 67 W/m² | - |
| 1778019906 | 25° C | 36% | 1011.6 hPa | 0 mm | 1.34 m/s, 42° | 60 W/m² | - |
| 1778019601 | 25.56° C | 36% | 1011.5 hPa | 0 mm | 1.34 m/s, 57° | 69 W/m² | - |
| 1778019300 | 26.11° C | 34% | 1011.5 hPa | 0 mm | 2.24 m/s, 296° | 119 W/m² | - |
| 1778018996 | 25.56° C | 36% | 1011.7 hPa | 0 mm | 0.45 m/s, 35° | 215 W/m² | - |
| 1778018693 | 25.56° C | 35% | 1011.5 hPa | 0 mm | 2.24 m/s, 350° | 166 W/m² | - |
| 1778018391 | 26.11° C | 35% | 1011.7 hPa | 0 mm | 3.13 m/s, 340° | 204 W/m² | - |
| 1778018089 | 25.56° C | 36% | 1011.5 hPa | 0 mm | 1.79 m/s, 93° | 242 W/m² | - |
| 1778017786 | 26.11° C | 35% | 1011.4 hPa | 0 mm | 4.02 m/s, 357° | 222 W/m² | - |
| 1778017484 | 25.56° C | 36% | 1011.5 hPa | 0 mm | 1.34 m/s, 71° | 332 W/m² | - |
| 1778017181 | 25.56° C | 36% | 1011.3 hPa | 0 mm | 2.68 m/s, 119° | 257 W/m² | - |
| 1778016879 | 25.56° C | 37% | 1011.4 hPa | 0 mm | 3.13 m/s, 69° | 164 W/m² | - |
| 1778016575 | 26.11° C | 36% | 1011.1 hPa | 0 mm | 3.13 m/s, 298° | 153 W/m² | - |
| 1778016272 | 26.67° C | 35% | 1011.2 hPa | 0 mm | 4.92 m/s, 44° | 298 W/m² | - |
| 1778015968 | 27.22° C | 36% | 1011.1 hPa | 0 mm | 1.34 m/s, 51° | 364 W/m² | - |
| 1778015666 | 27.22° C | 35% | 1011 hPa | 0 mm | 3.58 m/s, 284° | 437 W/m² | - |
| 1778015362 | 27.22° C | 36% | 1010.9 hPa | 0 mm | 1.34 m/s, 44° | 457 W/m² | - |
| 1778015063 | 27.22° C | 35% | 1010.9 hPa | 0 mm | 4.02 m/s, 326° | 479 W/m² | - |
| 1778014756 | 27.22° C | 36% | 1010.7 hPa | 0 mm | 1.34 m/s, 29° | 467 W/m² | - |
* Rain latest hour (hover to see other rain measurements)
** Current wind speed in m/s (hover to see current wind gust speed)